sensor_id;sensor_type;location;lat;lon;timestamp;P1;P2;P0
60816;PMS5003;51921;51.518;-3.188;2023-05-17T00:00:32;8;8;
60816;PMS5003;51921;51.518;-3.188;2023-05-17T00:02:57;8;7;
60816;PMS5003;51921;51.518;-3.188;2023-05-17T00:05:23;10;9;
60816;PMS5003;51921;51.518;-3.188;2023-05-17T00:07:48;10;10;
60816;PMS5003;51921;51.518;-3.188;2023-05-17T00:10:14;8;8;
60816;PMS5003;51921;51.518;-3.188;2023-05-17T00:12:39;10;8;
60816;PMS5003;51921;51.518;-3.188;2023-05-17T00:15:05;5;5;
60816;PMS5003;51921;51.518;-3.188;2023-05-17T00:17:30;9;8;
60816;PMS5003;51921;51.518;-3.188;2023-05-17T00:19:56;9;8;
60816;PMS5003;51921;51.518;-3.188;2023-05-17T00:22:21;9;8;
60816;PMS5003;51921;51.518;-3.188;2023-05-17T00:24:47;8;8;
60816;PMS5003;51921;51.518;-3.188;2023-05-17T00:27:12;8;8;
60816;PMS5003;51921;51.518;-3.188;2023-05-17T00:29:38;11;9;
60816;PMS5003;51921;51.518;-3.188;2023-05-17T00:32:03;13;12;
60816;PMS5003;51921;51.518;-3.188;2023-05-17T00:34:28;10;9;
60816;PMS5003;51921;51.518;-3.188;2023-05-17T00:36:54;6;6;
60816;PMS5003;51921;51.518;-3.188;2023-05-17T00:39:20;9;7;
60816;PMS5003;51921;51.518;-3.188;2023-05-17T00:41:50;10;10;
60816;PMS5003;51921;51.518;-3.188;2023-05-17T00:44:10;9;7;
60816;PMS5003;51921;51.518;-3.188;2023-05-17T00:46:35;13;9;
60816;PMS5003;51921;51.518;-3.188;2023-05-17T00:49:01;11;8;
60816;PMS5003;51921;51.518;-3.188;2023-05-17T00:51:27;9;9;
60816;PMS5003;51921;51.518;-3.188;2023-05-17T00:53:52;11;9;
60816;PMS5003;51921;51.518;-3.188;2023-05-17T00:56:18;10;9;
60816;PMS5003;51921;51.518;-3.188;2023-05-17T00:58:43;12;11;
60816;PMS5003;51921;51.518;-3.188;2023-05-17T01:01:09;9;9;
60816;PMS5003;51921;51.518;-3.188;2023-05-17T01:03:34;8;8;
60816;PMS5003;51921;51.518;-3.188;2023-05-17T01:06:00;8;7;
60816;PMS5003;51921;51.518;-3.188;2023-05-17T01:08:25;10;8;
60816;PMS5003;51921;51.518;-3.188;2023-05-17T01:10:53;9;9;
60816;PMS5003;51921;51.518;-3.188;2023-05-17T01:13:18;9;8;
60816;PMS5003;51921;51.518;-3.188;2023-05-17T01:15:44;9;9;
60816;PMS5003;51921;51.518;-3.188;2023-05-17T01:18:08;9;8;
60816;PMS5003;51921;51.518;-3.188;2023-05-17T01:20:34;6;6;
60816;PMS5003;51921;51.518;-3.188;2023-05-17T01:23:03;6;5;
60816;PMS5003;51921;51.518;-3.188;2023-05-17T01:25:33;10;9;
60816;PMS5003;51921;51.518;-3.188;2023-05-17T01:27:49;9;9;
60816;PMS5003;51921;51.518;-3.188;2023-05-17T01:30:15;7;7;
60816;PMS5003;51921;51.518;-3.188;2023-05-17T01:32:40;8;7;
60816;PMS5003;51921;51.518;-3.188;2023-05-17T01:35:06;10;9;
60816;PMS5003;51921;51.518;-3.188;2023-05-17T01:37:31;8;8;
60816;PMS5003;51921;51.518;-3.188;2023-05-17T01:39:57;6;6;
60816;PMS5003;51921;51.518;-3.188;2023-05-17T01:42:22;7;6;
60816;PMS5003;51921;51.518;-3.188;2023-05-17T01:44:48;8;8;
60816;PMS5003;51921;51.518;-3.188;2023-05-17T01:47:14;8;8;
60816;PMS5003;51921;51.518;-3.188;2023-05-17T01:49:39;8;7;
60816;PMS5003;51921;51.518;-3.188;2023-05-17T01:52:06;10;8;
60816;PMS5003;51921;51.518;-3.188;2023-05-17T01:54:30;9;8;
60816;PMS5003;51921;51.518;-3.188;2023-05-17T01:56:56;12;11;
60816;PMS5003;51921;51.518;-3.188;2023-05-17T01:59:21;10;8;
60816;PMS5003;51921;51.518;-3.188;2023-05-17T02:01:45;9;9;
60816;PMS5003;51921;51.518;-3.188;2023-05-17T02:04:11;10;9;
60816;PMS5003;51921;51.518;-3.188;2023-05-17T02:06:36;9;9;
60816;PMS5003;51921;51.518;-3.188;2023-05-17T02:09:01;10;8;
60816;PMS5003;51921;51.518;-3.188;2023-05-17T02:11:27;10;8;
60816;PMS5003;51921;51.518;-3.188;2023-05-17T02:13:52;9;9;
60816;PMS5003;51921;51.518;-3.188;2023-05-17T02:16:18;8;8;
60816;PMS5003;51921;51.518;-3.188;2023-05-17T02:18:43;11;10;
60816;PMS5003;51921;51.518;-3.188;2023-05-17T02:21:09;9;8;
60816;PMS5003;51921;51.518;-3.188;2023-05-17T02:23:34;11;10;
60816;PMS5003;51921;51.518;-3.188;2023-05-17T02:26:00;10;9;
60816;PMS5003;51921;51.518;-3.188;2023-05-17T02:28:26;8;8;
60816;PMS5003;51921;51.518;-3.188;2023-05-17T02:30:50;8;8;
60816;PMS5003;51921;51.518;-3.188;2023-05-17T02:33:16;9;7;
60816;PMS5003;51921;51.518;-3.188;2023-05-17T02:35:41;10;9;
60816;PMS5003;51921;51.518;-3.188;2023-05-17T02:38:06;9;9;
60816;PMS5003;51921;51.518;-3.188;2023-05-17T02:40:32;8;8;
60816;PMS5003;51921;51.518;-3.188;2023-05-17T02:42:57;9;8;
60816;PMS5003;51921;51.518;-3.188;2023-05-17T02:45:23;12;11;
60816;PMS5003;51921;51.518;-3.188;2023-05-17T02:47:48;10;10;
60816;PMS5003;51921;51.518;-3.188;2023-05-17T02:50:14;11;10;
60816;PMS5003;51921;51.518;-3.188;2023-05-17T02:52:39;13;11;
60816;PMS5003;51921;51.518;-3.188;2023-05-17T02:55:05;11;10;
60816;PMS5003;51921;51.518;-3.188;2023-05-17T02:57:30;11;10;
60816;PMS5003;51921;51.518;-3.188;2023-05-17T02:59:56;8;8;
60816;PMS5003;51921;51.518;-3.188;2023-05-17T03:02:21;15;12;
60816;PMS5003;51921;51.518;-3.188;2023-05-17T03:04:47;8;8;
60816;PMS5003;51921;51.518;-3.188;2023-05-17T03:07:12;10;9;
60816;PMS5003;51921;51.518;-3.188;2023-05-17T03:09:38;8;6;
60816;PMS5003;51921;51.518;-3.188;2023-05-17T03:12:03;9;9;
60816;PMS5003;51921;51.518;-3.188;2023-05-17T03:14:29;7;7;
60816;PMS5003;51921;51.518;-3.188;2023-05-17T03:16:54;7;7;
60816;PMS5003;51921;51.518;-3.188;2023-05-17T03:19:20;8;8;
60816;PMS5003;51921;51.518;-3.188;2023-05-17T03:21:45;10;8;
60816;PMS5003;51921;51.518;-3.188;2023-05-17T03:24:11;10;10;
60816;PMS5003;51921;51.518;-3.188;2023-05-17T03:26:36;8;8;
60816;PMS5003;51921;51.518;-3.188;2023-05-17T03:29:01;6;6;
60816;PMS5003;51921;51.518;-3.188;2023-05-17T03:31:27;10;10;
60816;PMS5003;51921;51.518;-3.188;2023-05-17T03:33:52;9;8;
60816;PMS5003;51921;51.518;-3.188;2023-05-17T03:36:17;5;5;
60816;PMS5003;51921;51.518;-3.188;2023-05-17T03:38:43;10;10;
60816;PMS5003;51921;51.518;-3.188;2023-05-17T03:41:09;8;8;
60816;PMS5003;51921;51.518;-3.188;2023-05-17T03:43:34;7;7;
60816;PMS5003;51921;51.518;-3.188;2023-05-17T03:45:59;6;6;
60816;PMS5003;51921;51.518;-3.188;2023-05-17T03:48:25;8;7;
60816;PMS5003;51921;51.518;-3.188;2023-05-17T03:50:50;8;8;
60816;PMS5003;51921;51.518;-3.188;2023-05-17T03:53:16;8;7;
60816;PMS5003;51921;51.518;-3.188;2023-05-17T03:55:41;9;9;
60816;PMS5003;51921;51.518;-3.188;2023-05-17T03:58:07;9;9;
60816;PMS5003;51921;51.518;-3.188;2023-05-17T04:00:32;7;7;
60816;PMS5003;51921;51.518;-3.188;2023-05-17T04:03:02;10;10;
60816;PMS5003;51921;51.518;-3.188;2023-05-17T04:05:23;8;6;
60816;PMS5003;51921;51.518;-3.188;2023-05-17T04:07:49;7;6;
60816;PMS5003;51921;51.518;-3.188;2023-05-17T04:10:14;7;6;
60816;PMS5003;51921;51.518;-3.188;2023-05-17T04:12:40;5;5;
60816;PMS5003;51921;51.518;-3.188;2023-05-17T04:15:06;6;6;
60816;PMS5003;51921;51.518;-3.188;2023-05-17T04:17:31;7;7;
60816;PMS5003;51921;51.518;-3.188;2023-05-17T04:19:56;6;6;
60816;PMS5003;51921;51.518;-3.188;2023-05-17T04:22:22;6;6;
60816;PMS5003;51921;51.518;-3.188;2023-05-17T04:24:47;7;7;
60816;PMS5003;51921;51.518;-3.188;2023-05-17T04:27:13;7;6;
60816;PMS5003;51921;51.518;-3.188;2023-05-17T04:29:38;6;6;
60816;PMS5003;51921;51.518;-3.188;2023-05-17T04:32:04;7;7;
60816;PMS5003;51921;51.518;-3.188;2023-05-17T04:34:29;8;7;
60816;PMS5003;51921;51.518;-3.188;2023-05-17T04:36:55;8;7;
60816;PMS5003;51921;51.518;-3.188;2023-05-17T04:39:21;7;7;
60816;PMS5003;51921;51.518;-3.188;2023-05-17T04:41:46;8;7;
60816;PMS5003;51921;51.518;-3.188;2023-05-17T04:44:12;7;7;
60816;PMS5003;51921;51.518;-3.188;2023-05-17T04:46:37;6;6;
60816;PMS5003;51921;51.518;-3.188;2023-05-17T04:49:03;8;8;
60816;PMS5003;51921;51.518;-3.188;2023-05-17T04:51:28;9;7;
60816;PMS5003;51921;51.518;-3.188;2023-05-17T04:53:54;10;10;
60816;PMS5003;51921;51.518;-3.188;2023-05-17T04:56:19;8;7;
60816;PMS5003;51921;51.518;-3.188;2023-05-17T04:58:45;6;6;
60816;PMS5003;51921;51.518;-3.188;2023-05-17T05:01:11;11;9;
60816;PMS5003;51921;51.518;-3.188;2023-05-17T05:03:36;10;10;
60816;PMS5003;51921;51.518;-3.188;2023-05-17T05:06:01;8;8;
60816;PMS5003;51921;51.518;-3.188;2023-05-17T05:08:26;8;7;
60816;PMS5003;51921;51.518;-3.188;2023-05-17T05:10:52;8;7;
60816;PMS5003;51921;51.518;-3.188;2023-05-17T05:13:17;8;8;
60816;PMS5003;51921;51.518;-3.188;2023-05-17T05:15:42;7;7;
60816;PMS5003;51921;51.518;-3.188;2023-05-17T05:18:08;9;8;
60816;PMS5003;51921;51.518;-3.188;2023-05-17T05:20:34;8;7;
60816;PMS5003;51921;51.518;-3.188;2023-05-17T05:22:59;9;9;
60816;PMS5003;51921;51.518;-3.188;2023-05-17T05:25:25;7;7;
60816;PMS5003;51921;51.518;-3.188;2023-05-17T05:27:51;7;6;
60816;PMS5003;51921;51.518;-3.188;2023-05-17T05:30:16;8;7;
60816;PMS5003;51921;51.518;-3.188;2023-05-17T05:32:41;8;7;
60816;PMS5003;51921;51.518;-3.188;2023-05-17T05:35:07;9;8;
60816;PMS5003;51921;51.518;-3.188;2023-05-17T05:37:32;9;8;
60816;PMS5003;51921;51.518;-3.188;2023-05-17T05:39:58;8;8;
60816;PMS5003;51921;51.518;-3.188;2023-05-17T05:42:23;6;5;
60816;PMS5003;51921;51.518;-3.188;2023-05-17T05:44:49;6;6;
60816;PMS5003;51921;51.518;-3.188;2023-05-17T05:47:14;7;7;
60816;PMS5003;51921;51.518;-3.188;2023-05-17T05:49:39;8;8;
60816;PMS5003;51921;51.518;-3.188;2023-05-17T05:52:05;8;7;
60816;PMS5003;51921;51.518;-3.188;2023-05-17T05:54:32;9;8;
60816;PMS5003;51921;51.518;-3.188;2023-05-17T05:56:56;7;7;
60816;PMS5003;51921;51.518;-3.188;2023-05-17T05:59:22;9;8;
60816;PMS5003;51921;51.518;-3.188;2023-05-17T06:01:47;8;7;
60816;PMS5003;51921;51.518;-3.188;2023-05-17T06:04:12;9;9;
60816;PMS5003;51921;51.518;-3.188;2023-05-17T06:06:38;6;5;
60816;PMS5003;51921;51.518;-3.188;2023-05-17T06:09:03;9;8;
60816;PMS5003;51921;51.518;-3.188;2023-05-17T06:11:29;7;7;
60816;PMS5003;51921;51.518;-3.188;2023-05-17T06:13:54;8;7;
60816;PMS5003;51921;51.518;-3.188;2023-05-17T06:16:20;11;10;
60816;PMS5003;51921;51.518;-3.188;2023-05-17T06:18:45;7;6;
60816;PMS5003;51921;51.518;-3.188;2023-05-17T06:21:10;8;8;
60816;PMS5003;51921;51.518;-3.188;2023-05-17T06:23:36;7;7;
60816;PMS5003;51921;51.518;-3.188;2023-05-17T06:26:01;9;8;
60816;PMS5003;51921;51.518;-3.188;2023-05-17T06:28:26;9;9;
60816;PMS5003;51921;51.518;-3.188;2023-05-17T06:30:52;7;7;
60816;PMS5003;51921;51.518;-3.188;2023-05-17T06:33:17;8;8;
60816;PMS5003;51921;51.518;-3.188;2023-05-17T06:35:43;7;7;
60816;PMS5003;51921;51.518;-3.188;2023-05-17T06:38:08;7;7;
60816;PMS5003;51921;51.518;-3.188;2023-05-17T06:40:34;4;4;
60816;PMS5003;51921;51.518;-3.188;2023-05-17T06:42:59;7;6;
60816;PMS5003;51921;51.518;-3.188;2023-05-17T06:45:25;6;5;
60816;PMS5003;51921;51.518;-3.188;2023-05-17T06:47:50;7;6;
60816;PMS5003;51921;51.518;-3.188;2023-05-17T06:50:15;8;7;
60816;PMS5003;51921;51.518;-3.188;2023-05-17T06:52:41;7;6;
60816;PMS5003;51921;51.518;-3.188;2023-05-17T06:55:06;6;6;
60816;PMS5003;51921;51.518;-3.188;2023-05-17T06:57:32;5;5;
60816;PMS5003;51921;51.518;-3.188;2023-05-17T06:59:57;9;8;
60816;PMS5003;51921;51.518;-3.188;2023-05-17T07:02:22;7;7;
60816;PMS5003;51921;51.518;-3.188;2023-05-17T07:04:48;7;6;
60816;PMS5003;51921;51.518;-3.188;2023-05-17T07:07:13;7;5;
60816;PMS5003;51921;51.518;-3.188;2023-05-17T07:09:39;7;7;
60816;PMS5003;51921;51.518;-3.188;2023-05-17T07:12:04;8;7;
60816;PMS5003;51921;51.518;-3.188;2023-05-17T07:14:29;7;7;
60816;PMS5003;51921;51.518;-3.188;2023-05-17T07:16:55;6;6;
60816;PMS5003;51921;51.518;-3.188;2023-05-17T07:19:20;9;8;
60816;PMS5003;51921;51.518;-3.188;2023-05-17T07:21:46;10;8;
60816;PMS5003;51921;51.518;-3.188;2023-05-17T07:24:11;5;5;
60816;PMS5003;51921;51.518;-3.188;2023-05-17T07:26:37;6;6;
60816;PMS5003;51921;51.518;-3.188;2023-05-17T07:29:02;9;8;
60816;PMS5003;51921;51.518;-3.188;2023-05-17T07:31:27;7;5;
60816;PMS5003;51921;51.518;-3.188;2023-05-17T07:33:53;6;5;
60816;PMS5003;51921;51.518;-3.188;2023-05-17T07:36:18;7;7;
60816;PMS5003;51921;51.518;-3.188;2023-05-17T07:38:43;7;7;
60816;PMS5003;51921;51.518;-3.188;2023-05-17T07:41:09;7;7;
60816;PMS5003;51921;51.518;-3.188;2023-05-17T07:43:34;10;6;
60816;PMS5003;51921;51.518;-3.188;2023-05-17T07:45:59;6;5;
60816;PMS5003;51921;51.518;-3.188;2023-05-17T07:48:24;6;6;
60816;PMS5003;51921;51.518;-3.188;2023-05-17T07:50:50;5;5;
60816;PMS5003;51921;51.518;-3.188;2023-05-17T07:53:15;6;5;
60816;PMS5003;51921;51.518;-3.188;2023-05-17T07:55:40;5;4;
60816;PMS5003;51921;51.518;-3.188;2023-05-17T07:58:06;8;6;
60816;PMS5003;51921;51.518;-3.188;2023-05-17T08:00:31;5;5;
60816;PMS5003;51921;51.518;-3.188;2023-05-17T08:02:56;6;6;
60816;PMS5003;51921;51.518;-3.188;2023-05-17T08:05:21;8;7;
60816;PMS5003;51921;51.518;-3.188;2023-05-17T08:07:47;4;4;
60816;PMS5003;51921;51.518;-3.188;2023-05-17T08:10:12;7;5;
60816;PMS5003;51921;51.518;-3.188;2023-05-17T08:12:37;8;7;
60816;PMS5003;51921;51.518;-3.188;2023-05-17T08:15:03;8;8;
60816;PMS5003;51921;51.518;-3.188;2023-05-17T08:17:28;7;7;
60816;PMS5003;51921;51.518;-3.188;2023-05-17T08:19:53;8;7;
60816;PMS5003;51921;51.518;-3.188;2023-05-17T08:22:19;5;5;
60816;PMS5003;51921;51.518;-3.188;2023-05-17T08:24:45;6;6;
60816;PMS5003;51921;51.518;-3.188;2023-05-17T08:27:09;10;10;
60816;PMS5003;51921;51.518;-3.188;2023-05-17T08:29:35;8;7;
60816;PMS5003;51921;51.518;-3.188;2023-05-17T08:32:00;7;7;
60816;PMS5003;51921;51.518;-3.188;2023-05-17T08:34:25;6;6;
60816;PMS5003;51921;51.518;-3.188;2023-05-17T08:36:50;6;6;
60816;PMS5003;51921;51.518;-3.188;2023-05-17T08:39:16;7;7;
60816;PMS5003;51921;51.518;-3.188;2023-05-17T08:41:41;6;6;
60816;PMS5003;51921;51.518;-3.188;2023-05-17T08:44:06;6;6;
60816;PMS5003;51921;51.518;-3.188;2023-05-17T08:46:32;9;8;
60816;PMS5003;51921;51.518;-3.188;2023-05-17T08:48:57;7;6;
60816;PMS5003;51921;51.518;-3.188;2023-05-17T08:51:22;8;8;
60816;PMS5003;51921;51.518;-3.188;2023-05-17T08:53:48;8;8;
60816;PMS5003;51921;51.518;-3.188;2023-05-17T08:56:13;6;6;
60816;PMS5003;51921;51.518;-3.188;2023-05-17T08:58:38;6;5;
60816;PMS5003;51921;51.518;-3.188;2023-05-17T09:01:05;12;9;
60816;PMS5003;51921;51.518;-3.188;2023-05-17T09:03:29;8;6;
60816;PMS5003;51921;51.518;-3.188;2023-05-17T09:05:54;9;7;
60816;PMS5003;51921;51.518;-3.188;2023-05-17T09:08:20;8;8;
60816;PMS5003;51921;51.518;-3.188;2023-05-17T09:10:45;7;7;
60816;PMS5003;51921;51.518;-3.188;2023-05-17T09:13:11;5;5;
60816;PMS5003;51921;51.518;-3.188;2023-05-17T09:15:36;5;5;
60816;PMS5003;51921;51.518;-3.188;2023-05-17T09:18:02;9;8;
60816;PMS5003;51921;51.518;-3.188;2023-05-17T09:20:27;7;7;
60816;PMS5003;51921;51.518;-3.188;2023-05-17T09:22:52;12;10;
60816;PMS5003;51921;51.518;-3.188;2023-05-17T09:25:18;8;8;
60816;PMS5003;51921;51.518;-3.188;2023-05-17T09:27:43;8;8;
60816;PMS5003;51921;51.518;-3.188;2023-05-17T09:30:09;6;6;
60816;PMS5003;51921;51.518;-3.188;2023-05-17T09:32:34;7;7;
60816;PMS5003;51921;51.518;-3.188;2023-05-17T09:34:59;8;6;
60816;PMS5003;51921;51.518;-3.188;2023-05-17T09:37:25;7;6;
60816;PMS5003;51921;51.518;-3.188;2023-05-17T09:39:50;7;7;
60816;PMS5003;51921;51.518;-3.188;2023-05-17T09:42:15;7;7;
60816;PMS5003;51921;51.518;-3.188;2023-05-17T09:44:44;6;6;
60816;PMS5003;51921;51.518;-3.188;2023-05-17T09:47:06;8;7;
60816;PMS5003;51921;51.518;-3.188;2023-05-17T09:49:31;6;6;
60816;PMS5003;51921;51.518;-3.188;2023-05-17T09:51:57;6;6;
60816;PMS5003;51921;51.518;-3.188;2023-05-17T09:54:22;6;5;
60816;PMS5003;51921;51.518;-3.188;2023-05-17T09:56:52;7;6;
60816;PMS5003;51921;51.518;-3.188;2023-05-17T09:59:13;10;7;
60816;PMS5003;51921;51.518;-3.188;2023-05-17T10:01:39;7;7;
60816;PMS5003;51921;51.518;-3.188;2023-05-17T10:04:03;6;6;
60816;PMS5003;51921;51.518;-3.188;2023-05-17T10:06:29;10;8;
60816;PMS5003;51921;51.518;-3.188;2023-05-17T10:08:55;7;7;
60816;PMS5003;51921;51.518;-3.188;2023-05-17T10:11:21;9;8;
60816;PMS5003;51921;51.518;-3.188;2023-05-17T10:13:45;8;8;
60816;PMS5003;51921;51.518;-3.188;2023-05-17T10:16:10;9;9;
60816;PMS5003;51921;51.518;-3.188;2023-05-17T10:18:36;9;7;
60816;PMS5003;51921;51.518;-3.188;2023-05-17T10:21:01;8;8;
60816;PMS5003;51921;51.518;-3.188;2023-05-17T10:23:26;8;8;
60816;PMS5003;51921;51.518;-3.188;2023-05-17T10:25:52;9;8;
60816;PMS5003;51921;51.518;-3.188;2023-05-17T10:28:17;8;8;
60816;PMS5003;51921;51.518;-3.188;2023-05-17T10:30:43;7;7;
60816;PMS5003;51921;51.518;-3.188;2023-05-17T10:33:08;11;8;
60816;PMS5003;51921;51.518;-3.188;2023-05-17T10:35:33;8;8;
60816;PMS5003;51921;51.518;-3.188;2023-05-17T10:37:59;6;5;
60816;PMS5003;51921;51.518;-3.188;2023-05-17T10:40:24;8;7;
60816;PMS5003;51921;51.518;-3.188;2023-05-17T10:42:50;10;9;
60816;PMS5003;51921;51.518;-3.188;2023-05-17T10:45:15;8;8;
60816;PMS5003;51921;51.518;-3.188;2023-05-17T10:47:41;7;7;
60816;PMS5003;51921;51.518;-3.188;2023-05-17T10:50:08;7;7;
60816;PMS5003;51921;51.518;-3.188;2023-05-17T10:52:31;9;9;
60816;PMS5003;51921;51.518;-3.188;2023-05-17T10:54:57;10;9;
60816;PMS5003;51921;51.518;-3.188;2023-05-17T10:57:31;10;9;
60816;PMS5003;51921;51.518;-3.188;2023-05-17T10:59:56;9;9;
60816;PMS5003;51921;51.518;-3.188;2023-05-17T11:02:12;6;6;
60816;PMS5003;51921;51.518;-3.188;2023-05-17T11:04:39;10;10;
60816;PMS5003;51921;51.518;-3.188;2023-05-17T11:09:29;8;8;
60816;PMS5003;51921;51.518;-3.188;2023-05-17T11:12:04;9;9;
60816;PMS5003;51921;51.518;-3.188;2023-05-17T11:14:19;10;9;
60816;PMS5003;51921;51.518;-3.188;2023-05-17T11:16:45;13;12;
60816;PMS5003;51921;51.518;-3.188;2023-05-17T11:19:11;8;8;
60816;PMS5003;51921;51.518;-3.188;2023-05-17T11:24:01;10;9;
60816;PMS5003;51921;51.518;-3.188;2023-05-17T11:26:27;10;10;
60816;PMS5003;51921;51.518;-3.188;2023-05-17T11:28:58;8;8;
60816;PMS5003;51921;51.518;-3.188;2023-05-17T11:31:17;11;10;
60816;PMS5003;51921;51.518;-3.188;2023-05-17T11:33:43;12;11;
60816;PMS5003;51921;51.518;-3.188;2023-05-17T11:36:12;11;10;
60816;PMS5003;51921;51.518;-3.188;2023-05-17T11:38:33;12;10;
60816;PMS5003;51921;51.518;-3.188;2023-05-17T11:41:00;11;11;
60816;PMS5003;51921;51.518;-3.188;2023-05-17T11:43:24;11;11;
60816;PMS5003;51921;51.518;-3.188;2023-05-17T11:45:50;9;8;
60816;PMS5003;51921;51.518;-3.188;2023-05-17T11:48:16;9;9;
60816;PMS5003;51921;51.518;-3.188;2023-05-17T11:50:40;9;8;
60816;PMS5003;51921;51.518;-3.188;2023-05-17T11:53:06;8;8;
60816;PMS5003;51921;51.518;-3.188;2023-05-17T11:55:31;10;8;
60816;PMS5003;51921;51.518;-3.188;2023-05-17T11:57:56;11;10;
60816;PMS5003;51921;51.518;-3.188;2023-05-17T12:00:23;10;9;
60816;PMS5003;51921;51.518;-3.188;2023-05-17T12:02:47;9;9;
60816;PMS5003;51921;51.518;-3.188;2023-05-17T12:07:38;11;10;
60816;PMS5003;51921;51.518;-3.188;2023-05-17T12:10:03;9;9;
60816;PMS5003;51921;51.518;-3.188;2023-05-17T12:12:28;12;11;
60816;PMS5003;51921;51.518;-3.188;2023-05-17T12:14:54;12;10;
60816;PMS5003;51921;51.518;-3.188;2023-05-17T12:17:21;7;7;
60816;PMS5003;51921;51.518;-3.188;2023-05-17T12:19:45;11;10;
60816;PMS5003;51921;51.518;-3.188;2023-05-17T12:22:11;13;11;
60816;PMS5003;51921;51.518;-3.188;2023-05-17T12:24:36;11;10;
60816;PMS5003;51921;51.518;-3.188;2023-05-17T12:27:00;10;9;
60816;PMS5003;51921;51.518;-3.188;2023-05-17T12:29:28;10;9;
60816;PMS5003;51921;51.518;-3.188;2023-05-17T12:31:51;10;9;
60816;PMS5003;51921;51.518;-3.188;2023-05-17T12:34:16;10;10;
60816;PMS5003;51921;51.518;-3.188;2023-05-17T12:36:41;12;9;
60816;PMS5003;51921;51.518;-3.188;2023-05-17T12:39:08;11;10;
60816;PMS5003;51921;51.518;-3.188;2023-05-17T12:41:32;8;8;
60816;PMS5003;51921;51.518;-3.188;2023-05-17T12:43:57;10;10;
60816;PMS5003;51921;51.518;-3.188;2023-05-17T12:46:23;9;8;
60816;PMS5003;51921;51.518;-3.188;2023-05-17T12:48:49;11;10;
60816;PMS5003;51921;51.518;-3.188;2023-05-17T12:51:15;9;9;
60816;PMS5003;51921;51.518;-3.188;2023-05-17T12:53:39;12;11;
60816;PMS5003;51921;51.518;-3.188;2023-05-17T12:56:04;12;11;
60816;PMS5003;51921;51.518;-3.188;2023-05-17T12:58:29;13;12;
60816;PMS5003;51921;51.518;-3.188;2023-05-17T13:00:55;16;14;
60816;PMS5003;51921;51.518;-3.188;2023-05-17T13:03:19;18;15;
60816;PMS5003;51921;51.518;-3.188;2023-05-17T13:05:45;14;13;
60816;PMS5003;51921;51.518;-3.188;2023-05-17T13:08:18;14;14;
60816;PMS5003;51921;51.518;-3.188;2023-05-17T13:10:35;20;18;
60816;PMS5003;51921;51.518;-3.188;2023-05-17T13:13:00;16;15;
60816;PMS5003;51921;51.518;-3.188;2023-05-17T13:15:27;13;12;
60816;PMS5003;51921;51.518;-3.188;2023-05-17T13:17:51;16;16;
60816;PMS5003;51921;51.518;-3.188;2023-05-17T13:20:17;12;11;
60816;PMS5003;51921;51.518;-3.188;2023-05-17T13:22:44;14;14;
60816;PMS5003;51921;51.518;-3.188;2023-05-17T13:25:08;14;13;
60816;PMS5003;51921;51.518;-3.188;2023-05-17T13:27:33;13;12;
60816;PMS5003;51921;51.518;-3.188;2023-05-17T13:29:58;14;13;
60816;PMS5003;51921;51.518;-3.188;2023-05-17T13:32:23;14;13;
60816;PMS5003;51921;51.518;-3.188;2023-05-17T13:34:49;12;12;
60816;PMS5003;51921;51.518;-3.188;2023-05-17T13:37:14;10;10;
60816;PMS5003;51921;51.518;-3.188;2023-05-17T13:39:40;14;11;
60816;PMS5003;51921;51.518;-3.188;2023-05-17T13:42:05;10;10;
60816;PMS5003;51921;51.518;-3.188;2023-05-17T13:44:31;11;10;
60816;PMS5003;51921;51.518;-3.188;2023-05-17T13:46:56;13;10;
60816;PMS5003;51921;51.518;-3.188;2023-05-17T13:49:21;9;9;
60816;PMS5003;51921;51.518;-3.188;2023-05-17T13:51:47;12;12;
60816;PMS5003;51921;51.518;-3.188;2023-05-17T13:54:12;13;12;
60816;PMS5003;51921;51.518;-3.188;2023-05-17T13:56:38;13;11;
60816;PMS5003;51921;51.518;-3.188;2023-05-17T13:59:03;10;9;
60816;PMS5003;51921;51.518;-3.188;2023-05-17T14:01:28;12;12;
60816;PMS5003;51921;51.518;-3.188;2023-05-17T14:03:54;8;8;
60816;PMS5003;51921;51.518;-3.188;2023-05-17T14:06:19;13;11;
60816;PMS5003;51921;51.518;-3.188;2023-05-17T14:08:45;9;9;
60816;PMS5003;51921;51.518;-3.188;2023-05-17T14:11:10;13;10;
60816;PMS5003;51921;51.518;-3.188;2023-05-17T14:13:35;8;7;
60816;PMS5003;51921;51.518;-3.188;2023-05-17T14:16:01;9;7;
60816;PMS5003;51921;51.518;-3.188;2023-05-17T14:18:27;9;9;
60816;PMS5003;51921;51.518;-3.188;2023-05-17T14:20:52;12;10;
60816;PMS5003;51921;51.518;-3.188;2023-05-17T14:23:17;11;10;
60816;PMS5003;51921;51.518;-3.188;2023-05-17T14:25:42;9;8;
60816;PMS5003;51921;51.518;-3.188;2023-05-17T14:28:07;12;11;
60816;PMS5003;51921;51.518;-3.188;2023-05-17T14:30:33;11;10;
60816;PMS5003;51921;51.518;-3.188;2023-05-17T14:32:58;14;13;
60816;PMS5003;51921;51.518;-3.188;2023-05-17T14:35:23;11;10;
60816;PMS5003;51921;51.518;-3.188;2023-05-17T14:37:49;12;10;
60816;PMS5003;51921;51.518;-3.188;2023-05-17T14:40:14;13;12;
60816;PMS5003;51921;51.518;-3.188;2023-05-17T14:42:39;10;10;
60816;PMS5003;51921;51.518;-3.188;2023-05-17T14:45:05;10;9;
60816;PMS5003;51921;51.518;-3.188;2023-05-17T14:47:30;10;8;
60816;PMS5003;51921;51.518;-3.188;2023-05-17T14:49:55;9;9;
60816;PMS5003;51921;51.518;-3.188;2023-05-17T14:52:21;13;11;
60816;PMS5003;51921;51.518;-3.188;2023-05-17T14:54:46;13;13;
60816;PMS5003;51921;51.518;-3.188;2023-05-17T14:57:11;10;9;
60816;PMS5003;51921;51.518;-3.188;2023-05-17T14:59:36;11;11;
60816;PMS5003;51921;51.518;-3.188;2023-05-17T15:02:02;7;7;
60816;PMS5003;51921;51.518;-3.188;2023-05-17T15:04:28;9;9;
60816;PMS5003;51921;51.518;-3.188;2023-05-17T15:06:52;9;9;
60816;PMS5003;51921;51.518;-3.188;2023-05-17T15:09:18;10;9;
60816;PMS5003;51921;51.518;-3.188;2023-05-17T15:11:43;9;8;
60816;PMS5003;51921;51.518;-3.188;2023-05-17T15:14:08;10;9;
60816;PMS5003;51921;51.518;-3.188;2023-05-17T15:16:34;14;11;
60816;PMS5003;51921;51.518;-3.188;2023-05-17T15:18:59;10;10;
60816;PMS5003;51921;51.518;-3.188;2023-05-17T15:21:24;11;10;
60816;PMS5003;51921;51.518;-3.188;2023-05-17T15:23:50;8;7;
60816;PMS5003;51921;51.518;-3.188;2023-05-17T15:26:15;8;8;
60816;PMS5003;51921;51.518;-3.188;2023-05-17T15:28:41;14;11;
60816;PMS5003;51921;51.518;-3.188;2023-05-17T15:31:06;9;8;
60816;PMS5003;51921;51.518;-3.188;2023-05-17T15:33:31;12;10;
60816;PMS5003;51921;51.518;-3.188;2023-05-17T15:35:56;9;8;
60816;PMS5003;51921;51.518;-3.188;2023-05-17T15:38:22;9;8;
60816;PMS5003;51921;51.518;-3.188;2023-05-17T15:40:47;12;10;
60816;PMS5003;51921;51.518;-3.188;2023-05-17T15:43:12;8;8;
60816;PMS5003;51921;51.518;-3.188;2023-05-17T15:45:38;11;10;
60816;PMS5003;51921;51.518;-3.188;2023-05-17T15:48:04;7;6;
60816;PMS5003;51921;51.518;-3.188;2023-05-17T15:50:29;9;8;
60816;PMS5003;51921;51.518;-3.188;2023-05-17T15:52:54;10;9;
60816;PMS5003;51921;51.518;-3.188;2023-05-17T15:55:19;10;9;
60816;PMS5003;51921;51.518;-3.188;2023-05-17T15:57:45;9;9;
60816;PMS5003;51921;51.518;-3.188;2023-05-17T16:00:10;10;10;
60816;PMS5003;51921;51.518;-3.188;2023-05-17T16:02:35;9;9;
60816;PMS5003;51921;51.518;-3.188;2023-05-17T16:05:00;8;8;
60816;PMS5003;51921;51.518;-3.188;2023-05-17T16:07:26;12;9;
60816;PMS5003;51921;51.518;-3.188;2023-05-17T16:09:51;10;9;
60816;PMS5003;51921;51.518;-3.188;2023-05-17T16:12:16;9;8;
60816;PMS5003;51921;51.518;-3.188;2023-05-17T16:14:42;11;10;
60816;PMS5003;51921;51.518;-3.188;2023-05-17T16:17:07;10;9;